DEZAH EDLW-EDLW

Flight info

Callsign DEZAH
Flight time 0h 4m
Altitude
Route DCT
Aircraft DA400

Departure

Time 2026-04-29 12:05
Airport Dortmund Airport (EDLW)

Arrival

Time 2026-04-29 12:10
Airport Dortmund Airport (EDLW)
Time Latitude Longitude Altitude Speed Heading
2026-04-29 11:55 51.51163 7.60332 468 ft 0 kts 195°
2026-04-29 11:57 51.51161 7.60331 468 ft 3 kts 205°
2026-04-29 11:57 51.51153 7.60223 464 ft 14 kts 262°
2026-04-29 11:58 51.51192 7.60162 459 ft 10 kts 51°
2026-04-29 11:58 51.51222 7.60241 458 ft 7 kts 60°
2026-04-29 11:58 51.51266 7.60365 457 ft 20 kts 60°
2026-04-29 11:58 51.51340 7.60573 454 ft 19 kts 60°
2026-04-29 11:59 51.51400 7.60744 448 ft 18 kts 61°
2026-04-29 11:59 51.51442 7.60865 443 ft 18 kts 59°
2026-04-29 11:59 51.51500 7.61027 439 ft 13 kts 59°
2026-04-29 11:59 51.51568 7.61038 436 ft 10 kts 303°
2026-04-29 12:00 51.51546 7.60925 435 ft 12 kts 238°
2026-04-29 12:00 51.51505 7.60808 434 ft 12 kts 241°
2026-04-29 12:00 51.51476 7.60726 428 ft 0 kts 239°
2026-04-29 12:02 51.51430 7.60597 429 ft 25 kts 240°
2026-04-29 12:03 51.51353 7.60356 424 ft 13 kts 268°
2026-04-29 12:03 51.51419 7.60258 426 ft 14 kts 340°
2026-04-29 12:03 51.51501 7.60283 420 ft 9 kts 59°
2026-04-29 12:03 51.51507 7.60298 423 ft 0 kts 59°
2026-04-29 12:04 51.51569 7.60482 420 ft 46 kts 58°
2026-04-29 12:04 51.51789 7.61094 455 ft 72 kts 59°
2026-04-29 12:05 51.52081 7.61785 601 ft 77 kts 57°
2026-04-29 12:05 51.52368 7.62488 862 ft 72 kts 58°
2026-04-29 12:05 51.52669 7.63192 1133 ft 73 kts 41°
2026-04-29 12:05 51.53209 7.63112 1270 ft 96 kts 345°
2026-04-29 12:06 51.53819 7.62644 1424 ft 99 kts 345°
2026-04-29 12:06 51.54386 7.62003 1520 ft 109 kts 310°
2026-04-29 12:06 51.54401 7.60724 1588 ft 127 kts 253°
2026-04-29 12:06 51.54168 7.59392 1700 ft 123 kts 252°
2026-04-29 12:07 51.53920 7.58116 1586 ft 118 kts 250°
2026-04-29 12:07 51.53621 7.56944 1669 ft 114 kts 243°
2026-04-29 12:07 51.53261 7.55790 1783 ft 115 kts 231°
2026-04-29 12:07 51.52638 7.55211 1780 ft 100 kts 169°
2026-04-29 12:08 51.51986 7.55421 1670 ft 94 kts 151°
2026-04-29 12:08 51.51375 7.55795 1484 ft 93 kts 142°
2026-04-29 12:08 51.50816 7.56271 1277 ft 90 kts 134°
2026-04-29 12:08 51.50526 7.56993 1118 ft 81 kts 82°
2026-04-29 12:09 51.50670 7.57871 943 ft 80 kts 65°
2026-04-29 12:09 51.50915 7.58611 728 ft 71 kts 60°
2026-04-29 12:09 51.51140 7.59238 589 ft 63 kts 60°
2026-04-29 12:09 51.51357 7.59846 515 ft 62 kts 62°
2026-04-29 12:10 51.51555 7.60417 432 ft 53 kts 62°
2026-04-29 12:10 51.51700 7.60828 417 ft 31 kts 62°
2026-04-29 12:10 51.51867 7.61315 411 ft 69 kts 61°
2026-04-29 12:10 51.52138 7.62046 532 ft 80 kts 59°
2026-04-29 12:11 51.52433 7.62811 722 ft 83 kts 57°
2026-04-29 12:11 51.52844 7.63321 991 ft 84 kts 11°
2026-04-29 12:11 51.53433 7.63013 1196 ft 93 kts 347°
2026-04-29 12:11 51.54015 7.62527 1373 ft 99 kts 327°
2026-04-29 12:12 51.54240 7.61351 1407 ft 125 kts 262°
2026-04-29 12:12 51.54025 7.59984 1444 ft 124 kts 252°
2026-04-29 12:12 51.53798 7.58670 1637 ft 121 kts 252°
2026-04-29 12:12 51.53558 7.57372 1679 ft 122 kts 251°
2026-04-29 12:13 51.53267 7.56070 1786 ft 125 kts 246°
2026-04-29 12:13 51.52940 7.54767 1881 ft 126 kts 244°
2026-04-29 12:13 51.52583 7.53522 1988 ft 122 kts 239°
2026-04-29 12:13 51.52004 7.52628 2045 ft 114 kts 184°
2026-04-29 12:14 51.51288 7.52770 2154 ft 100 kts 150°
2026-04-29 12:14 51.50644 7.53110 2214 ft 93 kts 146°
2026-04-29 12:14 51.50060 7.53489 2242 ft 90 kts 141°
2026-04-29 12:14 51.49606 7.54073 2178 ft 80 kts 103°
2026-04-29 12:15 51.49625 7.54994 1893 ft 89 kts 69°
2026-04-29 12:15 51.49918 7.55894 1565 ft 96 kts 60°
2026-04-29 12:15 51.50262 7.56810 1277 ft 94 kts 58°
2026-04-29 12:15 51.50571 7.57616 1018 ft 77 kts 58°
2026-04-29 12:16 51.50821 7.58295 849 ft 64 kts 60°
2026-04-29 12:16 51.51043 7.58959 724 ft 68 kts 61°
2026-04-29 12:16 51.51269 7.59607 568 ft 68 kts 59°
2026-04-29 12:16 51.51482 7.60215 459 ft 59 kts 62°
2026-04-29 12:17 51.51688 7.60805 420 ft 56 kts 60°
2026-04-29 12:17 51.51868 7.61314 411 ft 66 kts 62°
2026-04-29 12:17 51.52119 7.62004 537 ft 73 kts 58°
2026-04-29 12:17 51.52404 7.62727 731 ft 75 kts 55°
2026-04-29 12:18 51.52697 7.63418 1024 ft 77 kts 48°
2026-04-29 12:18 51.53200 7.63679 1293 ft 89 kts
2026-04-29 12:18 51.53843 7.63443 1453 ft 100 kts 353°
2026-04-29 12:18 51.54514 7.63140 1569 ft 106 kts 350°
2026-04-29 12:19 51.54985 7.62219 1780 ft 117 kts 284°
2026-04-29 12:19 51.54808 7.60966 2023 ft 116 kts 245°
2026-04-29 12:19 51.54443 7.59788 2226 ft 118 kts 238°
2026-04-29 12:19 51.54084 7.58605 2315 ft 115 kts 236°
2026-04-29 12:20 51.53679 7.57498 2347 ft 116 kts 235°
2026-04-29 12:20 51.53269 7.56353 2411 ft 123 kts 236°
2026-04-29 12:20 51.52834 7.55188 2600 ft 119 kts 236°
2026-04-29 12:20 51.52420 7.54053 2714 ft 118 kts 236°
2026-04-29 12:21 51.52007 7.52840 2691 ft 129 kts 238°
2026-04-29 12:21 51.51409 7.51960 2732 ft 111 kts 173°
2026-04-29 12:21 51.50733 7.52380 2668 ft 106 kts 142°
2026-04-29 12:21 51.50080 7.52978 2768 ft 106 kts 139°
2026-04-29 12:22 51.49526 7.53615 2874 ft 84 kts 106°
2026-04-29 12:22 51.49567 7.54571 2472 ft 89 kts 73°
2026-04-29 12:22 51.49786 7.55426 2070 ft 81 kts 63°
2026-04-29 12:22 51.50050 7.56153 1734 ft 71 kts 60°
2026-04-29 12:23 51.50315 7.56861 1368 ft 82 kts 61°
2026-04-29 12:23 51.50571 7.57646 1147 ft 76 kts 61°
2026-04-29 12:23 51.50827 7.58366 930 ft 78 kts 61°
2026-04-29 12:23 51.51103 7.59150 765 ft 74 kts 58°
2026-04-29 12:24 51.51342 7.59806 567 ft 61 kts 62°
2026-04-29 12:24 51.51563 7.60443 438 ft 68 kts 61°
2026-04-29 12:24 51.51758 7.60990 416 ft 44 kts 63°
2026-04-29 12:24 51.51950 7.61540 415 ft 72 kts 59°
2026-04-29 12:25 51.52214 7.62252 616 ft 69 kts 58°
2026-04-29 12:25 51.52480 7.62970 748 ft 83 kts 49°
2026-04-29 12:25 51.53606 7.62411 1118 ft 105 kts 333°
2026-04-29 12:26 51.54126 7.61613 1211 ft 96 kts 322°
2026-04-29 12:26 51.54466 7.60666 1380 ft 110 kts 276°
2026-04-29 12:26 51.54193 7.59352 1311 ft 130 kts 246°
2026-04-29 12:26 51.53836 7.58096 1441 ft 119 kts 242°
2026-04-29 12:27 51.53486 7.56891 1452 ft 122 kts 241°
2026-04-29 12:27 51.53123 7.55665 1674 ft 116 kts 239°
2026-04-29 12:27 51.52743 7.54465 1683 ft 125 kts 238°
2026-04-29 12:27 51.52352 7.53228 1754 ft 125 kts 240°
2026-04-29 12:28 51.51994 7.52040 1971 ft 116 kts 239°
2026-04-29 12:28 51.51615 7.50842 2036 ft 118 kts 238°
2026-04-29 12:28 51.51215 7.49703 2202 ft 115 kts 234°
2026-04-29 12:28 51.51175 7.48501 2265 ft 109 kts 316°
2026-04-29 12:29 51.51774 7.48168 2305 ft 88 kts 40°
2026-04-29 12:29 51.51726 7.48927 2560 ft 86 kts 139°
2026-04-29 12:29 51.51143 7.48458 2618 ft 116 kts 233°
2026-04-29 12:29 51.50727 7.47313 2709 ft 122 kts 239°
2026-04-29 12:30 51.50256 7.46162 2775 ft 121 kts 214°
2026-04-29 12:30 51.49549 7.46147 2762 ft 105 kts 128°
2026-04-29 12:30 51.49186 7.47120 2804 ft 101 kts 108°
2026-04-29 12:30 51.48821 7.48068 2747 ft 101 kts 118°
2026-04-29 12:31 51.48338 7.48875 2831 ft 101 kts 126°
2026-04-29 12:31 51.47916 7.49688 2772 ft 90 kts 89°
2026-04-29 12:31 51.48068 7.50666 2492 ft 91 kts 65°
2026-04-29 12:31 51.48354 7.51534 2256 ft 87 kts 59°
2026-04-29 12:32 51.48675 7.52356 2175 ft 88 kts 59°
2026-04-29 12:32 51.49011 7.53219 1947 ft 93 kts 59°
2026-04-29 12:32 51.49353 7.54082 1690 ft 90 kts 59°
2026-04-29 12:32 51.49661 7.54938 1478 ft 88 kts 61°
2026-04-29 12:33 51.49951 7.55784 1262 ft 85 kts 60°
2026-04-29 12:33 51.50247 7.56661 1040 ft 90 kts 61°
2026-04-29 12:33 51.50535 7.57525 911 ft 83 kts 58°
2026-04-29 12:33 51.50818 7.58346 782 ft 86 kts 59°
2026-04-29 12:34 51.51104 7.59147 677 ft 75 kts 57°
2026-04-29 12:34 51.51338 7.59801 546 ft 66 kts 58°
2026-04-29 12:34 51.51529 7.60360 440 ft 49 kts 64°
2026-04-29 12:34 51.51690 7.60811 418 ft 35 kts 58°
2026-04-29 12:35 51.51837 7.61230 411 ft 65 kts 62°
2026-04-29 12:35 51.52098 7.61968 538 ft 75 kts 57°
2026-04-29 12:35 51.52329 7.62715 765 ft 78 kts 60°
2026-04-29 12:35 51.52611 7.63431 1052 ft 72 kts 33°
2026-04-29 12:36 51.53071 7.63123 1360 ft 88 kts 331°
2026-04-29 12:36 51.53608 7.62385 1337 ft 105 kts 329°
2026-04-29 12:36 51.54017 7.61495 1540 ft 107 kts 286°
2026-04-29 12:36 51.53822 7.60250 1568 ft 122 kts 237°
2026-04-29 12:37 51.53416 7.59053 1731 ft 120 kts 235°
2026-04-29 12:37 51.52985 7.57917 1705 ft 114 kts 232°
2026-04-29 12:37 51.52562 7.56882 1634 ft 111 kts 233°
2026-04-29 12:37 51.52131 7.55854 1624 ft 109 kts 232°
2026-04-29 12:38 51.51716 7.54800 1543 ft 114 kts 232°
2026-04-29 12:38 51.51298 7.53687 1449 ft 118 kts 237°
2026-04-29 12:38 51.50907 7.52540 1421 ft 117 kts 239°
2026-04-29 12:38 51.50513 7.51431 1402 ft 111 kts 230°
2026-04-29 12:39 51.49934 7.50925 1543 ft 85 kts 171°
2026-04-29 12:39 51.49355 7.51167 1517 ft 93 kts 143°
2026-04-29 12:39 51.48761 7.51589 1644 ft 91 kts 142°
2026-04-29 12:39 51.48524 7.52287 1804 ft 81 kts 61°
2026-04-29 12:40 51.48848 7.53106 1687 ft 86 kts 58°
2026-04-29 12:40 51.49180 7.53904 1525 ft 87 kts 57°
2026-04-29 12:40 51.49509 7.54679 1412 ft 81 kts 57°
2026-04-29 12:40 51.49805 7.55460 1243 ft 81 kts 58°
2026-04-29 12:41 51.50082 7.56211 1102 ft 78 kts 62°
2026-04-29 12:41 51.50332 7.56994 990 ft 79 kts 59°
2026-04-29 12:41 51.50619 7.57760 881 ft 84 kts 58°
2026-04-29 12:41 51.50903 7.58576 786 ft 82 kts 58°
2026-04-29 12:42 51.51172 7.59327 650 ft 74 kts 58°
2026-04-29 12:42 51.51409 7.59993 518 ft 60 kts 60°
2026-04-29 12:42 51.51587 7.60522 435 ft 54 kts 59°
2026-04-29 12:42 51.51741 7.60964 416 ft 30 kts 58°
2026-04-29 12:43 51.51832 7.61209 411 ft 32 kts 60°
2026-04-29 12:43 51.51962 7.61581 406 ft 42 kts 60°
2026-04-29 12:43 51.52101 7.61983 405 ft 45 kts 61°
2026-04-29 12:43 51.52200 7.62295 406 ft 10 kts 107°
2026-04-29 12:44 51.52111 7.62385 404 ft 20 kts 148°
2026-04-29 12:44 51.52040 7.62359 408 ft 18 kts 244°
2026-04-29 12:44 51.51964 7.62141 414 ft 24 kts 239°
2026-04-29 12:44 51.51901 7.61964 418 ft 9 kts 242°
2026-04-29 12:45 51.51885 7.61918 425 ft 3 kts 240°
2026-04-29 12:45 51.51875 7.61890 424 ft 10 kts 239°
2026-04-29 12:45 51.51817 7.61724 425 ft 10 kts 239°
2026-04-29 12:45 51.51812 7.61710 428 ft 0 kts 238°
2026-04-29 12:49 51.51762 7.61566 430 ft 34 kts 241°
2026-04-29 12:49 51.51615 7.61152 429 ft 35 kts 239°
2026-04-29 12:49 51.51531 7.61064 434 ft 7 kts 177°
2026-04-29 12:49 51.51504 7.61038 439 ft 12 kts 239°
2026-04-29 12:50 51.51438 7.60854 443 ft 26 kts 241°
2026-04-29 12:50 51.51335 7.60561 454 ft 30 kts 240°
2026-04-29 12:50 51.51236 7.60280 458 ft 28 kts 242°
2026-04-29 12:50 51.51161 7.60163 461 ft 11 kts 137°
2026-04-29 12:51 51.51186 7.60279 463 ft 11 kts 56°
2026-04-29 12:51 51.51202 7.60357 465 ft 3 kts 105°
2026-04-29 12:51 51.51194 7.60399 468 ft 0 kts 108°